createdAt,value
2023-04-21T00:00:08.353Z,12.32
2023-04-21T00:02:54.020Z,11.68
2023-04-21T00:05:42.676Z,12.25
2023-04-21T00:08:28.583Z,13.27
2023-04-21T00:11:16.992Z,13.98
2023-04-21T00:14:05.321Z,13.02
2023-04-21T00:17:16.954Z,12.43
2023-04-21T00:20:02.658Z,13.10
2023-04-21T00:23:02.463Z,12.70
2023-04-21T00:29:04.304Z,13.00
2023-04-21T00:31:49.937Z,13.68
2023-04-21T00:34:36.220Z,13.95
2023-04-21T00:37:21.754Z,15.80
2023-04-21T00:40:13.993Z,14.68
2023-04-21T00:42:59.771Z,15.77
2023-04-21T00:45:49.642Z,15.00
2023-04-21T00:48:42.866Z,14.90
2023-04-21T00:51:29.523Z,15.65
2023-04-21T00:54:20.948Z,15.35
2023-04-21T01:00:14.781Z,15.35
2023-04-21T01:03:01.781Z,15.70
2023-04-21T01:05:51.031Z,16.27
2023-04-21T01:08:49.236Z,15.75
2023-04-21T01:11:44.519Z,16.23
2023-04-21T01:14:43.630Z,17.08
2023-04-21T01:17:40.218Z,16.65
2023-04-21T01:20:26.582Z,17.90
2023-04-21T01:23:28.167Z,16.98
2023-04-21T01:26:35.741Z,16.42
2023-04-21T01:30:02.322Z,16.13
2023-04-21T01:32:51.999Z,17.45
2023-04-21T01:35:38.832Z,18.02
2023-04-21T01:38:24.809Z,17.20
2023-04-21T01:41:28.857Z,17.27
2023-04-21T01:47:48.485Z,16.85
2023-04-21T01:50:34.466Z,17.58
2023-04-21T01:53:20.679Z,17.15
2023-04-21T01:56:28.309Z,18.55
2023-04-21T01:59:14.720Z,17.90
2023-04-21T02:05:25.320Z,18.15
2023-04-21T02:08:15.280Z,17.70
2023-04-21T02:11:04.671Z,18.00
2023-04-21T02:14:01.790Z,19.20
2023-04-21T02:16:51.182Z,17.70
2023-04-21T02:19:37.785Z,18.98
2023-04-21T02:22:24.108Z,18.65
2023-04-21T02:25:17.182Z,18.63
2023-04-21T02:28:02.999Z,18.63
2023-04-21T02:30:48.606Z,19.23
2023-04-21T02:33:34.212Z,20.45
2023-04-21T02:36:19.456Z,19.35
2023-04-21T02:39:05.415Z,19.67
2023-04-21T02:41:50.922Z,19.05
2023-04-21T02:44:39.414Z,18.55
2023-04-21T02:47:25.105Z,18.60
2023-04-21T02:50:13.335Z,19.83
2023-04-21T02:52:58.503Z,19.00
2023-04-21T02:55:44.159Z,20.33
2023-04-21T02:58:29.893Z,21.83
2023-04-21T03:01:15.629Z,18.90
2023-04-21T03:04:01.615Z,18.17
2023-04-21T03:06:46.985Z,19.20
2023-04-21T03:09:32.532Z,21.10
2023-04-21T03:12:18.052Z,18.95
2023-04-21T03:15:04.677Z,18.52
2023-04-21T03:17:50.800Z,22.20
2023-04-21T03:20:36.168Z,20.08
2023-04-21T03:23:21.876Z,18.95
2023-04-21T03:26:08.455Z,20.75
2023-04-21T03:28:53.739Z,20.95
2023-04-21T03:31:39.161Z,20.88
2023-04-21T03:34:24.691Z,19.90
2023-04-21T03:37:10.204Z,20.15
2023-04-21T03:39:55.662Z,21.15
2023-04-21T03:42:41.504Z,20.30
2023-04-21T03:45:26.788Z,20.20
2023-04-21T03:48:12.362Z,19.13
2023-04-21T03:50:58.513Z,19.88
2023-04-21T03:53:44.427Z,21.45
2023-04-21T03:56:31.132Z,22.05
2023-04-21T03:59:18.480Z,20.92
2023-04-21T04:02:04.510Z,20.33
2023-04-21T04:04:50.271Z,22.52
2023-04-21T04:07:36.041Z,20.15
2023-04-21T04:10:21.312Z,24.70
2023-04-21T04:13:06.853Z,21.38
2023-04-21T04:15:52.918Z,22.38
2023-04-21T04:18:38.612Z,21.65
2023-04-21T04:21:24.251Z,21.95
2023-04-21T04:24:11.137Z,24.33
2023-04-21T04:26:58.210Z,23.17
2023-04-21T04:29:44.094Z,22.58
2023-04-21T04:32:29.512Z,25.95
2023-04-21T04:35:16.426Z,21.90
2023-04-21T04:38:02.249Z,23.92
2023-04-21T04:40:57.783Z,22.50
2023-04-21T04:43:44.014Z,24.63
2023-04-21T04:46:29.459Z,23.73
2023-04-21T04:49:15.517Z,23.08
2023-04-21T04:52:02.024Z,22.77
2023-04-21T04:54:47.495Z,24.20
2023-04-21T04:57:32.895Z,22.45
2023-04-21T05:00:18.815Z,24.48
2023-04-21T05:03:05.022Z,22.92
2023-04-21T05:05:51.201Z,22.27
2023-04-21T05:08:37.925Z,21.17
2023-04-21T05:11:24.061Z,23.85
2023-04-21T05:14:09.662Z,22.80
2023-04-21T05:16:55.483Z,22.50
2023-04-21T05:19:41.236Z,23.42
2023-04-21T05:22:26.831Z,22.83
2023-04-21T05:25:15.552Z,22.23
2023-04-21T05:28:01.299Z,22.48
2023-04-21T05:30:46.677Z,22.50
2023-04-21T05:33:32.647Z,22.42
2023-04-21T05:36:20.242Z,22.08
2023-04-21T05:39:06.460Z,21.70
2023-04-21T05:41:52.053Z,21.42
2023-04-21T05:44:38.196Z,22.05
2023-04-21T05:47:23.587Z,20.75
2023-04-21T05:50:09.678Z,22.63
2023-04-21T05:52:56.132Z,21.58
2023-04-21T05:55:41.684Z,21.90
2023-04-21T05:58:27.292Z,21.08
2023-04-21T06:01:13.230Z,21.80
2023-04-21T06:03:59.399Z,22.45
2023-04-21T06:06:45.090Z,21.13
2023-04-21T06:09:30.743Z,21.20
2023-04-21T06:12:16.225Z,20.85
2023-04-21T06:15:02.085Z,20.38
2023-04-21T06:17:48.065Z,22.27
2023-04-21T06:20:33.568Z,21.30
2023-04-21T06:23:22.189Z,20.15
2023-04-21T06:26:09.573Z,21.80
2023-04-21T06:28:55.453Z,20.00
2023-04-21T06:31:40.972Z,19.63
2023-04-21T06:34:26.636Z,19.38
2023-04-21T06:37:12.544Z,18.13
2023-04-21T06:39:58.554Z,18.17
2023-04-21T06:42:44.248Z,17.83
2023-04-21T06:45:30.809Z,17.85
2023-04-21T06:48:18.483Z,17.05
2023-04-21T06:51:04.116Z,15.30
2023-04-21T06:53:50.285Z,15.60
2023-04-21T06:59:49.051Z,17.17
2023-04-21T07:02:36.873Z,15.07
2023-04-21T07:05:22.833Z,16.45
2023-04-21T07:08:08.468Z,15.80
2023-04-21T07:10:53.874Z,15.73
2023-04-21T07:13:39.344Z,13.90
2023-04-21T07:16:25.194Z,15.88
2023-04-21T07:19:10.564Z,16.45
2023-04-21T07:21:56.213Z,13.88
2023-04-21T07:24:41.839Z,16.95
2023-04-21T07:27:29.307Z,13.40
2023-04-21T07:30:15.547Z,12.90
2023-04-21T07:33:01.283Z,12.70
2023-04-21T07:35:47.044Z,12.25
2023-04-21T07:38:32.642Z,11.40
2023-04-21T07:41:17.747Z,12.85
2023-04-21T07:44:03.252Z,11.80
2023-04-21T07:46:48.897Z,13.27
2023-04-21T07:49:34.250Z,11.93
2023-04-21T07:52:19.682Z,11.18
2023-04-21T07:55:05.979Z,11.82
2023-04-21T07:57:51.732Z,11.88
2023-04-21T08:00:37.723Z,12.43
2023-04-21T08:03:24.593Z,11.52
2023-04-21T08:06:10.923Z,11.25
2023-04-21T08:08:56.835Z,11.50
2023-04-21T08:11:42.690Z,13.15
2023-04-21T08:14:28.874Z,13.13
2023-04-21T08:17:14.156Z,12.00
2023-04-21T08:20:00.051Z,12.70
2023-04-21T08:22:47.998Z,13.25
2023-04-21T08:25:34.184Z,13.05
2023-04-21T08:28:19.982Z,12.27
2023-04-21T08:31:05.680Z,11.65
2023-04-21T08:34:01.001Z,11.63
2023-04-21T08:36:48.130Z,11.35
2023-04-21T08:39:34.054Z,12.35
2023-04-21T08:42:20.076Z,12.38
2023-04-21T08:45:06.597Z,12.55
2023-04-21T08:47:52.415Z,13.40
2023-04-21T08:50:38.593Z,13.10
2023-04-21T08:53:24.349Z,12.35
2023-04-21T08:56:11.908Z,12.88
2023-04-21T08:58:57.843Z,11.73
2023-04-21T09:02:11.296Z,13.30
2023-04-21T09:04:57.574Z,12.15
2023-04-21T09:07:43.418Z,12.13
2023-04-21T09:10:28.943Z,12.55
2023-04-21T09:13:14.491Z,13.35
2023-04-21T09:16:01.199Z,14.05
2023-04-21T09:18:46.970Z,13.10
2023-04-21T09:21:32.589Z,14.55
2023-04-21T09:24:18.532Z,14.15
2023-04-21T09:27:04.935Z,13.38
2023-04-21T09:29:50.452Z,14.57
2023-04-21T09:32:38.102Z,11.95
2023-04-21T09:35:28.974Z,14.93
2023-04-21T09:38:14.344Z,13.43
2023-04-21T09:41:00.125Z,11.40
2023-04-21T09:43:45.665Z,11.43
2023-04-21T09:46:36.773Z,10.98
2023-04-21T09:49:24.281Z,11.65
2023-04-21T09:52:19.080Z,9.52
2023-04-21T09:55:12.908Z,8.18
2023-04-21T09:58:03.870Z,9.20
2023-04-21T10:01:00.474Z,7.53
2023-04-21T10:03:50.866Z,6.55
2023-04-21T10:06:40.241Z,7.28
2023-04-21T10:09:43.594Z,6.88
2023-04-21T10:12:30.395Z,5.82
2023-04-21T10:15:37.712Z,5.93
2023-04-21T10:18:34.510Z,5.50
2023-04-21T10:24:41.232Z,5.50
2023-04-21T10:28:01.342Z,5.63
2023-04-21T10:30:47.375Z,4.80
2023-04-21T10:34:09.591Z,5.30
2023-04-21T10:37:12.539Z,5.30
2023-04-21T10:39:58.179Z,5.38
2023-04-21T10:42:59.394Z,5.35
2023-04-21T10:46:30.672Z,5.57
2023-04-21T10:49:35.488Z,5.55
2023-04-21T10:52:29.842Z,5.43
2023-04-21T10:55:40.764Z,6.22
2023-04-21T10:58:27.637Z,6.22
2023-04-21T11:01:13.346Z,6.03
2023-04-21T11:03:59.984Z,5.72
2023-04-21T11:07:16.566Z,5.82
2023-04-21T11:10:11.583Z,6.20
2023-04-21T11:12:58.184Z,5.78
2023-04-21T11:16:14.152Z,5.18
2023-04-21T11:18:59.788Z,5.15
2023-04-21T11:21:49.006Z,5.85
2023-04-21T11:24:35.147Z,6.18
2023-04-21T11:27:22.369Z,5.80
2023-04-21T11:30:08.497Z,6.25
2023-04-21T11:32:55.525Z,7.22
2023-04-21T11:35:41.704Z,7.95
2023-04-21T11:38:27.326Z,7.32
2023-04-21T11:41:20.486Z,7.57
2023-04-21T11:44:06.170Z,8.30
2023-04-21T11:46:51.861Z,9.07
2023-04-21T11:49:46.584Z,10.18
2023-04-21T11:52:34.491Z,9.68
2023-04-21T11:55:20.020Z,10.95
2023-04-21T11:58:06.044Z,11.75
2023-04-21T12:00:51.437Z,9.63
2023-04-21T12:03:36.991Z,8.98
2023-04-21T12:06:29.549Z,9.18
2023-04-21T12:09:20.061Z,9.88
2023-04-21T12:12:06.268Z,10.77
2023-04-21T12:14:53.153Z,10.10
2023-04-21T12:17:39.858Z,9.73
2023-04-21T12:20:28.383Z,9.35
2023-04-21T12:23:14.049Z,9.13
2023-04-21T12:26:00.682Z,7.50
2023-04-21T12:28:46.728Z,9.38
2023-04-21T12:31:32.227Z,10.02
2023-04-21T12:34:17.594Z,11.65
2023-04-21T12:37:03.569Z,11.18
2023-04-21T12:39:49.330Z,11.93
2023-04-21T12:42:37.260Z,13.60
2023-04-21T12:45:23.405Z,11.98
2023-04-21T12:48:09.576Z,11.70
2023-04-21T12:50:55.529Z,12.70
2023-04-21T12:53:40.830Z,12.13
2023-04-21T12:56:27.015Z,12.25
2023-04-21T12:59:12.746Z,11.93
2023-04-21T13:01:58.819Z,11.02
2023-04-21T13:04:44.525Z,11.95
2023-04-21T13:07:31.490Z,11.30
2023-04-21T13:10:19.598Z,11.20
2023-04-21T13:13:05.040Z,10.95
2023-04-21T13:15:50.803Z,10.55
2023-04-21T13:18:37.779Z,9.77
2023-04-21T13:21:23.431Z,7.88
2023-04-21T13:24:09.923Z,8.07
2023-04-21T13:26:58.469Z,7.75
2023-04-21T13:29:43.757Z,8.23
2023-04-21T13:32:29.541Z,9.20
2023-04-21T13:35:14.952Z,8.20
2023-04-21T13:38:00.473Z,8.00
2023-04-21T13:40:48.795Z,8.25
2023-04-21T13:43:34.661Z,7.57
2023-04-21T13:46:20.687Z,6.80
2023-04-21T13:49:06.711Z,7.97
2023-04-21T13:51:52.677Z,7.65
2023-04-21T13:54:38.514Z,6.82
2023-04-21T13:57:25.674Z,6.82
2023-04-21T14:00:12.190Z,6.68
2023-04-21T14:02:58.206Z,7.22
2023-04-21T14:05:43.957Z,6.25
2023-04-21T14:08:29.628Z,6.78
2023-04-21T14:11:15.528Z,6.82
2023-04-21T14:14:09.046Z,6.28
2023-04-21T14:16:55.813Z,5.93
2023-04-21T14:19:41.559Z,8.15
2023-04-21T14:22:28.289Z,7.78
2023-04-21T14:25:14.186Z,6.88
2023-04-21T14:28:00.688Z,8.13
2023-04-21T14:30:46.647Z,7.35
2023-04-21T14:33:33.476Z,8.68
2023-04-21T14:36:19.500Z,9.02
2023-04-21T14:39:05.490Z,8.52
2023-04-21T14:41:51.409Z,9.02
2023-04-21T14:44:37.584Z,8.73
2023-04-21T14:47:23.548Z,8.85
2023-04-21T14:50:09.642Z,9.80
2023-04-21T14:52:55.330Z,9.02
2023-04-21T14:55:40.534Z,9.73
2023-04-21T14:58:27.406Z,9.77
2023-04-21T15:01:13.382Z,9.43
2023-04-21T15:04:00.250Z,10.00
2023-04-21T15:06:46.746Z,9.48
2023-04-21T15:09:32.626Z,9.50
2023-04-21T15:12:18.787Z,10.68
2023-04-21T15:15:05.274Z,10.13
2023-04-21T15:18:01.317Z,11.35
2023-04-21T15:20:48.388Z,10.90
2023-04-21T15:23:35.887Z,11.02
2023-04-21T15:26:22.855Z,9.90
2023-04-21T15:29:08.514Z,12.32
2023-04-21T15:31:54.290Z,15.00
2023-04-21T15:34:39.978Z,15.85
2023-04-21T15:37:25.938Z,18.17
2023-04-21T15:40:12.047Z,17.95
2023-04-21T15:42:57.963Z,20.13
2023-04-21T15:45:43.692Z,19.92
2023-04-21T15:48:29.606Z,18.10
2023-04-21T15:51:15.997Z,18.15
2023-04-21T15:54:01.493Z,19.02
2023-04-21T15:56:47.273Z,18.13
2023-04-21T15:59:33.056Z,17.65
2023-04-21T16:02:20.980Z,16.20
2023-04-21T16:05:07.604Z,17.13
2023-04-21T16:07:53.742Z,17.77
2023-04-21T16:10:39.810Z,18.55
2023-04-21T16:13:25.674Z,19.27
2023-04-21T16:16:11.319Z,19.70
2023-04-21T16:18:56.792Z,17.67
2023-04-21T16:21:43.169Z,17.75
2023-04-21T16:24:28.730Z,17.13
2023-04-21T16:27:14.346Z,15.95
2023-04-21T16:30:00.045Z,15.73
2023-04-21T16:32:45.707Z,15.90
2023-04-21T16:35:31.191Z,14.52
2023-04-21T16:38:16.859Z,16.42
2023-04-21T16:41:02.903Z,14.50
2023-04-21T16:43:49.132Z,19.20
2023-04-21T16:46:34.746Z,19.58
2023-04-21T16:49:20.494Z,20.88
2023-04-21T16:52:06.176Z,24.33
2023-04-21T16:54:52.020Z,24.30
2023-04-21T16:57:37.765Z,22.95
2023-04-21T17:00:23.357Z,21.48
2023-04-21T17:03:08.939Z,23.20
2023-04-21T17:05:54.975Z,20.48
2023-04-21T17:08:40.396Z,22.90
2023-04-21T17:11:27.724Z,24.10
2023-04-21T17:14:13.211Z,24.70
2023-04-21T17:16:59.714Z,24.25
2023-04-21T17:19:45.341Z,24.55
2023-04-21T17:22:30.573Z,26.92
2023-04-21T17:25:16.301Z,26.67
2023-04-21T17:28:02.245Z,27.38
2023-04-21T17:30:47.578Z,27.10
2023-04-21T17:33:33.475Z,26.67
2023-04-21T17:36:19.423Z,26.58
2023-04-21T17:39:05.403Z,26.50
2023-04-21T17:41:51.201Z,25.27
2023-04-21T17:44:37.271Z,25.77
2023-04-21T17:47:23.721Z,27.08
2023-04-21T17:50:12.811Z,28.25
2023-04-21T17:52:58.636Z,26.25
2023-04-21T17:55:44.638Z,25.45
2023-04-21T17:58:30.002Z,24.95
2023-04-21T18:01:15.630Z,25.30
2023-04-21T18:04:01.888Z,25.90
2023-04-21T18:06:47.721Z,26.40
2023-04-21T18:09:33.294Z,28.73
2023-04-21T18:12:18.685Z,27.40
2023-04-21T18:15:07.051Z,28.40
2023-04-21T18:17:53.279Z,26.27
2023-04-21T18:20:39.342Z,28.33
2023-04-21T18:23:25.033Z,29.33
2023-04-21T18:26:10.986Z,28.50
2023-04-21T18:28:59.280Z,28.58
2023-04-21T18:31:44.815Z,27.60
2023-04-21T18:34:30.534Z,27.50
2023-04-21T18:37:15.813Z,26.90
2023-04-21T18:40:09.819Z,28.60
2023-04-21T18:43:21.175Z,28.23
2023-04-21T18:46:07.305Z,27.10
2023-04-21T18:48:53.492Z,26.05
2023-04-21T18:51:38.981Z,27.55
2023-04-21T18:54:24.423Z,27.52
2023-04-21T18:57:09.831Z,29.08
2023-04-21T18:59:55.208Z,26.52
2023-04-21T19:02:41.236Z,28.52
2023-04-21T19:05:29.802Z,27.77
2023-04-21T19:08:19.737Z,29.10
2023-04-21T19:11:10.307Z,28.60
2023-04-21T19:13:55.861Z,28.20
2023-04-21T19:16:41.765Z,27.77
2023-04-21T19:19:27.666Z,26.75
2023-04-21T19:22:13.254Z,28.58
2023-04-21T19:24:58.802Z,29.55
2023-04-21T19:27:44.608Z,28.70
2023-04-21T19:30:30.476Z,28.80
2023-04-21T19:33:24.596Z,30.45
2023-04-21T19:36:10.065Z,26.73
2023-04-21T19:38:55.594Z,28.27
2023-04-21T19:41:40.987Z,28.08
2023-04-21T19:44:26.534Z,27.77
2023-04-21T19:47:12.056Z,28.75
2023-04-21T19:49:57.825Z,29.98
2023-04-21T19:52:43.498Z,29.45
2023-04-21T19:55:29.843Z,27.33
2023-04-21T19:58:28.147Z,29.25
2023-04-21T20:01:22.856Z,29.77
2023-04-21T20:04:11.919Z,30.98
2023-04-21T20:06:58.169Z,28.88
2023-04-21T20:09:44.210Z,29.55
2023-04-21T20:12:30.438Z,27.60
2023-04-21T20:15:17.286Z,28.77
2023-04-21T20:18:03.915Z,30.02
2023-04-21T20:20:49.904Z,30.45
2023-04-21T20:23:38.997Z,30.08
2023-04-21T20:26:25.191Z,32.80
2023-04-21T20:29:11.181Z,31.00
2023-04-21T20:31:57.449Z,30.00
2023-04-21T20:34:43.144Z,31.75
2023-04-21T20:37:35.678Z,31.55
2023-04-21T20:40:24.625Z,29.88
2023-04-21T20:43:12.381Z,30.52
2023-04-21T20:45:58.415Z,32.50
2023-04-21T20:48:43.850Z,31.95
2023-04-21T20:51:29.472Z,30.48
2023-04-21T20:54:14.795Z,31.45
2023-04-21T20:57:01.368Z,31.52
2023-04-21T20:59:47.097Z,31.63
2023-04-21T21:02:33.048Z,30.73
2023-04-21T21:05:18.639Z,32.40
2023-04-21T21:08:05.126Z,31.25
2023-04-21T21:10:50.879Z,31.35
2023-04-21T21:13:36.586Z,30.92
2023-04-21T21:16:25.333Z,30.00
2023-04-21T21:19:12.696Z,31.27
2023-04-21T21:21:58.603Z,31.42
2023-04-21T21:24:44.722Z,32.55
2023-04-21T21:27:30.636Z,31.25
2023-04-21T21:30:17.148Z,32.70
2023-04-21T21:33:03.210Z,30.20
2023-04-21T21:35:49.565Z,30.35
2023-04-21T21:38:36.280Z,30.73
2023-04-21T21:41:23.193Z,30.35
2023-04-21T21:44:09.508Z,31.00
2023-04-21T21:46:55.652Z,29.45
2023-04-21T21:49:41.117Z,30.08
2023-04-21T21:52:28.662Z,29.88
2023-04-21T21:55:14.338Z,30.17
2023-04-21T21:58:03.551Z,30.00
2023-04-21T22:00:52.011Z,29.60
2023-04-21T22:03:38.056Z,29.38
2023-04-21T22:06:26.725Z,30.15
2023-04-21T22:09:12.562Z,29.75
2023-04-21T22:11:58.525Z,30.55
2023-04-21T22:14:46.400Z,31.33
2023-04-21T22:17:35.036Z,30.60
2023-04-21T22:20:21.881Z,31.77
2023-04-21T22:23:07.313Z,31.83
2023-04-21T22:25:52.532Z,32.05
2023-04-21T22:28:38.044Z,32.05
2023-04-21T22:31:23.722Z,30.80
2023-04-21T22:34:09.549Z,30.75
2023-04-21T22:36:54.971Z,29.88
2023-04-21T22:39:40.880Z,30.88
2023-04-21T22:42:26.543Z,29.67
2023-04-21T22:45:12.298Z,29.20
2023-04-21T22:47:57.716Z,31.58
2023-04-21T22:50:47.541Z,28.42
2023-04-21T22:53:33.657Z,29.90
2023-04-21T22:56:19.600Z,31.60
2023-04-21T22:59:05.671Z,30.02
2023-04-21T23:01:51.519Z,30.00
2023-04-21T23:04:36.991Z,31.50
2023-04-21T23:07:22.753Z,32.15
2023-04-21T23:10:08.491Z,29.35
2023-04-21T23:12:53.885Z,30.35
2023-04-21T23:15:39.410Z,30.02
2023-04-21T23:18:25.635Z,32.38
2023-04-21T23:21:11.038Z,32.42
2023-04-21T23:24:14.402Z,29.38
2023-04-21T23:27:01.078Z,30.58
2023-04-21T23:29:46.468Z,29.58
2023-04-21T23:32:31.958Z,31.05
2023-04-21T23:35:18.043Z,30.23
2023-04-21T23:38:04.340Z,28.58
2023-04-21T23:40:50.123Z,31.15
2023-04-21T23:44:13.342Z,31.08
2023-04-21T23:47:35.174Z,30.17
2023-04-21T23:50:57.809Z,30.98
2023-04-21T23:54:15.211Z,30.65
2023-04-21T23:57:32.751Z,29.45
